sensor_id;sensor_type;location;lat;lon;timestamp;pressure;altitude;pressure_sealevel;temperature;humidity
59877;BME280;74472;51.140;17.184;2023-12-22T00:01:10;97064.66;;;6.13;83.37
59877;BME280;74472;51.140;17.184;2023-12-22T00:03:37;97069.09;;;6.13;82.70
59877;BME280;74472;51.140;17.184;2023-12-22T00:06:02;97059.56;;;6.11;82.82
59877;BME280;74472;51.140;17.184;2023-12-22T00:08:27;97070.22;;;6.10;82.80
59877;BME280;74472;51.140;17.184;2023-12-22T00:10:53;97066.63;;;6.11;82.85
59877;BME280;74472;51.140;17.184;2023-12-22T00:13:18;97056.97;;;6.03;82.61
59877;BME280;74472;51.140;17.184;2023-12-22T00:15:43;97064.81;;;6.11;82.86
59877;BME280;74472;51.140;17.184;2023-12-22T00:18:09;97068.09;;;6.14;82.80
59877;BME280;74472;51.140;17.184;2023-12-22T00:20:35;97062.50;;;6.08;82.26
59877;BME280;74472;51.140;17.184;2023-12-22T00:23:00;97058.44;;;6.06;82.07
59877;BME280;74472;51.140;17.184;2023-12-22T00:25:26;97073.00;;;6.00;81.96
59877;BME280;74472;51.140;17.184;2023-12-22T00:27:51;97062.84;;;5.97;81.87
59877;BME280;74472;51.140;17.184;2023-12-22T00:30:17;97069.06;;;5.96;81.61
59877;BME280;74472;51.140;17.184;2023-12-22T00:32:42;97060.72;;;5.93;81.72
59877;BME280;74472;51.140;17.184;2023-12-22T00:35:07;97061.81;;;5.90;81.23
59877;BME280;74472;51.140;17.184;2023-12-22T00:37:33;97089.94;;;5.88;81.17
59877;BME280;74472;51.140;17.184;2023-12-22T00:39:58;97092.88;;;5.85;80.98
59877;BME280;74472;51.140;17.184;2023-12-22T00:42:23;97086.34;;;5.81;80.58
59877;BME280;74472;51.140;17.184;2023-12-22T00:44:49;97095.16;;;5.80;80.62
59877;BME280;74472;51.140;17.184;2023-12-22T00:47:14;97086.16;;;5.74;80.72
59877;BME280;74472;51.140;17.184;2023-12-22T00:49:39;97088.09;;;5.72;80.19
59877;BME280;74472;51.140;17.184;2023-12-22T00:52:05;97097.75;;;5.72;80.10
59877;BME280;74472;51.140;17.184;2023-12-22T00:54:30;97093.50;;;5.71;79.61
59877;BME280;74472;51.140;17.184;2023-12-22T00:56:57;97091.22;;;5.68;79.27
59877;BME280;74472;51.140;17.184;2023-12-22T00:59:23;97075.00;;;5.64;79.80
59877;BME280;74472;51.140;17.184;2023-12-22T01:01:48;97089.09;;;5.71;79.90
59877;BME280;74472;51.140;17.184;2023-12-22T01:04:14;97085.66;;;5.71;80.17
59877;BME280;74472;51.140;17.184;2023-12-22T01:06:40;97101.66;;;5.68;80.45
59877;BME280;74472;51.140;17.184;2023-12-22T01:09:14;97090.84;;;5.62;80.48
59877;BME280;74472;51.140;17.184;2023-12-22T01:11:40;97094.31;;;5.63;80.15
59877;BME280;74472;51.140;17.184;2023-12-22T01:14:05;97087.59;;;5.60;80.37
59877;BME280;74472;51.140;17.184;2023-12-22T01:16:32;97102.44;;;5.52;81.10
59877;BME280;74472;51.140;17.184;2023-12-22T01:18:57;97118.75;;;5.46;81.08
59877;BME280;74472;51.140;17.184;2023-12-22T01:21:23;97133.13;;;5.41;81.15
59877;BME280;74472;51.140;17.184;2023-12-22T01:23:48;97128.19;;;5.30;80.90
59877;BME280;74472;51.140;17.184;2023-12-22T01:26:13;97113.13;;;5.32;80.65
59877;BME280;74472;51.140;17.184;2023-12-22T01:28:39;97133.53;;;5.29;81.08
59877;BME280;74472;51.140;17.184;2023-12-22T01:31:04;97125.88;;;5.27;81.44
59877;BME280;74472;51.140;17.184;2023-12-22T01:33:30;97127.16;;;5.23;81.05
59877;BME280;74472;51.140;17.184;2023-12-22T01:35:55;97125.06;;;5.27;81.15
59877;BME280;74472;51.140;17.184;2023-12-22T01:38:21;97131.41;;;5.24;80.79
59877;BME280;74472;51.140;17.184;2023-12-22T01:40:46;97124.84;;;5.20;80.67
59877;BME280;74472;51.140;17.184;2023-12-22T01:43:11;97117.97;;;5.19;80.27
59877;BME280;74472;51.140;17.184;2023-12-22T01:45:38;97114.72;;;5.17;80.27
59877;BME280;74472;51.140;17.184;2023-12-22T01:48:04;97114.72;;;5.17;79.98
59877;BME280;74472;51.140;17.184;2023-12-22T01:50:29;97117.63;;;5.14;80.09
59877;BME280;74472;51.140;17.184;2023-12-22T01:52:54;97095.06;;;5.13;79.92
59877;BME280;74472;51.140;17.184;2023-12-22T01:55:20;97116.66;;;5.15;79.58
59877;BME280;74472;51.140;17.184;2023-12-22T01:57:46;97116.81;;;5.13;78.89
59877;BME280;74472;51.140;17.184;2023-12-22T02:00:13;97100.78;;;5.08;79.33
59877;BME280;74472;51.140;17.184;2023-12-22T02:02:38;97097.84;;;5.11;79.43
59877;BME280;74472;51.140;17.184;2023-12-22T02:05:06;97090.00;;;5.11;78.94
59877;BME280;74472;51.140;17.184;2023-12-22T02:07:34;97091.13;;;5.09;78.15
59877;BME280;74472;51.140;17.184;2023-12-22T02:10:00;97099.16;;;5.07;78.59
59877;BME280;74472;51.140;17.184;2023-12-22T02:12:26;97094.88;;;5.06;78.52
59877;BME280;74472;51.140;17.184;2023-12-22T02:14:51;97095.84;;;5.05;77.80
59877;BME280;74472;51.140;17.184;2023-12-22T02:17:43;97107.59;;;5.01;77.86
59877;BME280;74472;51.140;17.184;2023-12-22T02:20:11;97098.13;;;5.00;76.92
59877;BME280;74472;51.140;17.184;2023-12-22T02:22:36;97093.84;;;4.99;77.45
59877;BME280;74472;51.140;17.184;2023-12-22T02:25:01;97110.50;;;4.98;77.65
59877;BME280;74472;51.140;17.184;2023-12-22T02:27:47;97108.59;;;5.00;77.62
59877;BME280;74472;51.140;17.184;2023-12-22T02:30:23;97108.03;;;4.97;76.96
59877;BME280;74472;51.140;17.184;2023-12-22T02:32:51;97120.81;;;5.00;77.88
59877;BME280;74472;51.140;17.184;2023-12-22T02:35:19;97118.97;;;4.92;78.11
59877;BME280;74472;51.140;17.184;2023-12-22T02:37:46;97107.19;;;4.88;78.52
59877;BME280;74472;51.140;17.184;2023-12-22T02:40:12;97105.41;;;4.88;78.58
59877;BME280;74472;51.140;17.184;2023-12-22T02:42:38;97099.66;;;4.85;78.37
59877;BME280;74472;51.140;17.184;2023-12-22T02:45:05;97119.16;;;4.73;77.71
59877;BME280;74472;51.140;17.184;2023-12-22T02:47:30;97119.97;;;4.73;78.01
59877;BME280;74472;51.140;17.184;2023-12-22T02:49:57;97105.38;;;4.62;78.02
59877;BME280;74472;51.140;17.184;2023-12-22T02:52:23;97122.97;;;4.60;78.25
59877;BME280;74472;51.140;17.184;2023-12-22T02:54:48;97131.59;;;4.53;78.12
59877;BME280;74472;51.140;17.184;2023-12-22T02:57:13;97126.75;;;4.40;78.38
59877;BME280;74472;51.140;17.184;2023-12-22T02:59:39;97135.47;;;4.31;78.34
59877;BME280;74472;51.140;17.184;2023-12-22T03:02:04;97138.09;;;4.31;78.42
59877;BME280;74472;51.140;17.184;2023-12-22T03:04:30;97130.19;;;4.22;78.60
59877;BME280;74472;51.140;17.184;2023-12-22T03:06:55;97135.03;;;4.17;78.64
59877;BME280;74472;51.140;17.184;2023-12-22T03:09:20;97134.16;;;4.09;78.53
59877;BME280;74472;51.140;17.184;2023-12-22T03:11:47;97143.78;;;4.08;78.16
59877;BME280;74472;51.140;17.184;2023-12-22T03:14:12;97150.22;;;4.04;78.36
59877;BME280;74472;51.140;17.184;2023-12-22T03:16:38;97139.28;;;4.00;77.84
59877;BME280;74472;51.140;17.184;2023-12-22T03:19:03;97153.41;;;3.98;77.62
59877;BME280;74472;51.140;17.184;2023-12-22T03:21:28;97152.91;;;3.94;77.33
59877;BME280;74472;51.140;17.184;2023-12-22T03:23:56;97153.19;;;3.91;77.22
59877;BME280;74472;51.140;17.184;2023-12-22T03:26:21;97163.50;;;3.93;76.88
59877;BME280;74472;51.140;17.184;2023-12-22T03:28:47;97171.03;;;3.96;76.71
59877;BME280;74472;51.140;17.184;2023-12-22T03:31:12;97162.38;;;3.95;75.52
59877;BME280;74472;51.140;17.184;2023-12-22T03:33:37;97173.34;;;3.99;76.06
59877;BME280;74472;51.140;17.184;2023-12-22T03:36:06;97165.53;;;3.99;76.33
59877;BME280;74472;51.140;17.184;2023-12-22T03:38:31;97170.44;;;4.02;76.06
59877;BME280;74472;51.140;17.184;2023-12-22T03:40:59;97170.44;;;4.02;76.16
59877;BME280;74472;51.140;17.184;2023-12-22T03:43:24;97191.69;;;4.07;75.99
59877;BME280;74472;51.140;17.184;2023-12-22T03:45:50;97190.88;;;4.07;76.24
59877;BME280;74472;51.140;17.184;2023-12-22T03:48:15;97183.50;;;4.02;76.62
59877;BME280;74472;51.140;17.184;2023-12-22T03:50:40;97194.06;;;4.00;77.16
59877;BME280;74472;51.140;17.184;2023-12-22T03:53:06;97209.59;;;4.02;77.73
59877;BME280;74472;51.140;17.184;2023-12-22T03:55:31;97201.22;;;3.98;77.95
59877;BME280;74472;51.140;17.184;2023-12-22T03:57:56;97195.16;;;3.98;78.22
59877;BME280;74472;51.140;17.184;2023-12-22T04:00:21;97194.34;;;3.97;78.30
59877;BME280;74472;51.140;17.184;2023-12-22T04:02:47;97204.13;;;3.95;78.03
59877;BME280;74472;51.140;17.184;2023-12-22T04:05:12;97201.00;;;3.92;78.26
59877;BME280;74472;51.140;17.184;2023-12-22T04:07:37;97190.41;;;3.93;78.31
59877;BME280;74472;51.140;17.184;2023-12-22T04:10:03;97210.44;;;3.93;78.77
59877;BME280;74472;51.140;17.184;2023-12-22T04:12:28;97207.03;;;3.92;78.36
59877;BME280;74472;51.140;17.184;2023-12-22T04:14:53;97198.66;;;3.89;78.62
59877;BME280;74472;51.140;17.184;2023-12-22T04:17:19;97187.16;;;3.82;79.42
59877;BME280;74472;51.140;17.184;2023-12-22T04:19:44;97197.53;;;3.64;79.96
59877;BME280;74472;51.140;17.184;2023-12-22T04:22:10;97182.47;;;3.58;80.35
59877;BME280;74472;51.140;17.184;2023-12-22T04:24:35;97194.84;;;3.56;80.85
59877;BME280;74472;51.140;17.184;2023-12-22T04:27:00;97190.75;;;3.53;80.94
59877;BME280;74472;51.140;17.184;2023-12-22T04:29:25;97180.31;;;3.53;80.79
59877;BME280;74472;51.140;17.184;2023-12-22T04:31:51;97197.31;;;3.57;81.16
59877;BME280;74472;51.140;17.184;2023-12-22T04:34:16;97202.66;;;3.56;81.25
59877;BME280;74472;51.140;17.184;2023-12-22T04:36:41;97182.09;;;3.52;81.47
59877;BME280;74472;51.140;17.184;2023-12-22T04:39:07;97183.84;;;3.52;81.58
59877;BME280;74472;51.140;17.184;2023-12-22T04:41:32;97163.97;;;3.51;81.65
59877;BME280;74472;51.140;17.184;2023-12-22T04:43:58;97179.22;;;3.56;81.18
59877;BME280;74472;51.140;17.184;2023-12-22T04:46:23;97183.56;;;3.55;80.83
59877;BME280;74472;51.140;17.184;2023-12-22T04:48:48;97177.41;;;3.56;80.56
59877;BME280;74472;51.140;17.184;2023-12-22T04:51:14;97177.25;;;3.58;80.06
59877;BME280;74472;51.140;17.184;2023-12-22T04:53:39;97171.91;;;3.59;79.92
59877;BME280;74472;51.140;17.184;2023-12-22T04:56:04;97162.84;;;3.63;79.51
59877;BME280;74472;51.140;17.184;2023-12-22T04:58:30;97171.63;;;3.62;79.28
59877;BME280;74472;51.140;17.184;2023-12-22T05:00:55;97161.56;;;3.67;78.93
59877;BME280;74472;51.140;17.184;2023-12-22T05:03:20;97164.72;;;3.71;78.66
59877;BME280;74472;51.140;17.184;2023-12-22T05:05:46;97168.81;;;3.73;78.79
59877;BME280;74472;51.140;17.184;2023-12-22T05:08:11;97163.59;;;3.73;78.67
59877;BME280;74472;51.140;17.184;2023-12-22T05:10:36;97165.91;;;3.76;77.83
59877;BME280;74472;51.140;17.184;2023-12-22T05:13:02;97157.13;;;3.78;77.74
59877;BME280;74472;51.140;17.184;2023-12-22T05:15:27;97162.50;;;3.76;77.64
59877;BME280;74472;51.140;17.184;2023-12-22T05:17:52;97170.69;;;3.81;77.25
59877;BME280;74472;51.140;17.184;2023-12-22T05:20:18;97174.09;;;3.82;76.80
59877;BME280;74472;51.140;17.184;2023-12-22T05:22:43;97175.78;;;3.83;76.79
59877;BME280;74472;51.140;17.184;2023-12-22T05:25:08;97166.84;;;3.85;76.88
59877;BME280;74472;51.140;17.184;2023-12-22T05:27:35;97177.41;;;3.84;77.05
59877;BME280;74472;51.140;17.184;2023-12-22T05:30:01;97175.78;;;3.83;76.96
59877;BME280;74472;51.140;17.184;2023-12-22T05:32:28;97161.38;;;3.79;76.68
59877;BME280;74472;51.140;17.184;2023-12-22T05:34:53;97175.91;;;3.81;77.20
59877;BME280;74472;51.140;17.184;2023-12-22T05:37:19;97176.44;;;3.85;77.07
59877;BME280;74472;51.140;17.184;2023-12-22T05:39:44;97176.44;;;3.85;77.21
59877;BME280;74472;51.140;17.184;2023-12-22T05:42:10;97179.59;;;3.88;76.89
59877;BME280;74472;51.140;17.184;2023-12-22T05:44:36;97164.75;;;3.89;77.06
59877;BME280;74472;51.140;17.184;2023-12-22T05:47:02;97160.94;;;3.83;76.94
59877;BME280;74472;51.140;17.184;2023-12-22T05:49:28;97176.81;;;3.90;77.24
59877;BME280;74472;51.140;17.184;2023-12-22T05:51:53;97175.84;;;3.91;77.26
59877;BME280;74472;51.140;17.184;2023-12-22T05:54:18;97169.97;;;3.89;76.53
59877;BME280;74472;51.140;17.184;2023-12-22T05:56:45;97183.69;;;3.91;77.01
59877;BME280;74472;51.140;17.184;2023-12-22T05:59:10;97182.34;;;3.87;76.92
59877;BME280;74472;51.140;17.184;2023-12-22T06:01:35;97172.13;;;3.93;76.97
59877;BME280;74472;51.140;17.184;2023-12-22T06:04:01;97174.75;;;3.93;76.79
59877;BME280;74472;51.140;17.184;2023-12-22T06:06:27;97168.03;;;3.91;76.82
59877;BME280;74472;51.140;17.184;2023-12-22T06:08:52;97185.06;;;3.95;77.06
59877;BME280;74472;51.140;17.184;2023-12-22T06:11:18;97193.81;;;3.94;76.58
59877;BME280;74472;51.140;17.184;2023-12-22T06:13:43;97191.38;;;3.92;76.79
59877;BME280;74472;51.140;17.184;2023-12-22T06:16:15;97186.16;;;3.92;76.69
59877;BME280;74472;51.140;17.184;2023-12-22T06:18:41;97202.75;;;3.91;76.74
59877;BME280;74472;51.140;17.184;2023-12-22T06:21:08;97185.63;;;3.89;77.00
59877;BME280;74472;51.140;17.184;2023-12-22T06:23:33;97183.59;;;3.83;77.38
59877;BME280;74472;51.140;17.184;2023-12-22T06:25:58;97198.00;;;3.87;77.34
59877;BME280;74472;51.140;17.184;2023-12-22T06:28:24;97205.81;;;3.87;77.49
59877;BME280;74472;51.140;17.184;2023-12-22T06:30:49;97191.13;;;3.86;77.45
59877;BME280;74472;51.140;17.184;2023-12-22T06:33:14;97203.19;;;3.87;77.66
59877;BME280;74472;51.140;17.184;2023-12-22T06:35:40;97198.66;;;3.89;77.75
59877;BME280;74472;51.140;17.184;2023-12-22T06:38:10;97210.75;;;3.90;77.81
59877;BME280;74472;51.140;17.184;2023-12-22T06:40:36;97209.94;;;3.89;77.93
59877;BME280;74472;51.140;17.184;2023-12-22T06:43:02;97200.59;;;3.87;77.86
59877;BME280;74472;51.140;17.184;2023-12-22T06:45:27;97192.09;;;3.85;78.29
59877;BME280;74472;51.140;17.184;2023-12-22T06:47:52;97204.19;;;3.86;78.21
59877;BME280;74472;51.140;17.184;2023-12-22T06:50:18;97194.97;;;3.82;78.11
59877;BME280;74472;51.140;17.184;2023-12-22T06:52:43;97199.38;;;3.81;78.58
59877;BME280;74472;51.140;17.184;2023-12-22T06:55:08;97202.81;;;3.82;78.51
59877;BME280;74472;51.140;17.184;2023-12-22T06:57:34;97188.00;;;3.82;78.82
59877;BME280;74472;51.140;17.184;2023-12-22T06:59:59;97196.78;;;3.81;79.05
59877;BME280;74472;51.140;17.184;2023-12-22T07:02:25;97196.13;;;3.79;79.04
59877;BME280;74472;51.140;17.184;2023-12-22T07:07:35;97203.41;;;3.75;79.50
59877;BME280;74472;51.140;17.184;2023-12-22T07:10:00;97202.88;;;3.72;79.56
59877;BME280;74472;51.140;17.184;2023-12-22T07:12:26;97211.22;;;3.75;79.81
59877;BME280;74472;51.140;17.184;2023-12-22T07:14:51;97198.75;;;3.69;80.02
59877;BME280;74472;51.140;17.184;2023-12-22T07:17:16;97218.38;;;3.73;79.55
59877;BME280;74472;51.140;17.184;2023-12-22T07:19:42;97221.25;;;3.70;80.05
59877;BME280;74472;51.140;17.184;2023-12-22T07:22:07;97237.88;;;3.69;80.08
59877;BME280;74472;51.140;17.184;2023-12-22T07:24:32;97240.09;;;3.64;80.01
59877;BME280;74472;51.140;17.184;2023-12-22T07:26:58;97232.38;;;3.72;79.97
59877;BME280;74472;51.140;17.184;2023-12-22T07:29:23;97244.28;;;3.75;80.08
59877;BME280;74472;51.140;17.184;2023-12-22T07:31:48;97249.38;;;3.76;80.37
59877;BME280;74472;51.140;17.184;2023-12-22T07:34:14;97240.16;;;3.82;80.57
59877;BME280;74472;51.140;17.184;2023-12-22T07:36:40;97245.22;;;3.84;80.44
59877;BME280;74472;51.140;17.184;2023-12-22T07:39:05;97245.75;;;3.87;80.34
59877;BME280;74472;51.140;17.184;2023-12-22T07:41:32;97258.38;;;3.92;80.68
59877;BME280;74472;51.140;17.184;2023-12-22T07:43:57;97251.50;;;3.91;81.04
59877;BME280;74472;51.140;17.184;2023-12-22T07:46:22;97244.66;;;3.90;81.35
59877;BME280;74472;51.140;17.184;2023-12-22T07:48:48;97229.28;;;3.87;81.64
59877;BME280;74472;51.140;17.184;2023-12-22T07:51:14;97231.38;;;3.83;81.85
59877;BME280;74472;51.140;17.184;2023-12-22T07:53:39;97236.78;;;3.72;81.67
59877;BME280;74472;51.140;17.184;2023-12-22T07:56:05;97227.53;;;3.78;81.60
59877;BME280;74472;51.140;17.184;2023-12-22T07:58:31;97214.50;;;3.78;82.09
59877;BME280;74472;51.140;17.184;2023-12-22T08:00:58;97211.22;;;3.75;82.19
59877;BME280;74472;51.140;17.184;2023-12-22T08:03:23;97204.34;;;3.74;82.54
59877;BME280;74472;51.140;17.184;2023-12-22T08:05:49;97208.75;;;3.74;82.71
59877;BME280;74472;51.140;17.184;2023-12-22T08:08:14;97220.81;;;3.75;82.43
59877;BME280;74472;51.140;17.184;2023-12-22T08:10:40;97244.28;;;3.75;82.51
59877;BME280;74472;51.140;17.184;2023-12-22T08:13:06;97216.28;;;3.77;82.20
59877;BME280;74472;51.140;17.184;2023-12-22T08:15:31;97216.28;;;3.77;82.18
59877;BME280;74472;51.140;17.184;2023-12-22T08:17:57;97234.09;;;3.82;81.92
59877;BME280;74472;51.140;17.184;2023-12-22T08:20:23;97259.91;;;3.85;81.59
59877;BME280;74472;51.140;17.184;2023-12-22T08:22:49;97243.16;;;3.87;82.04
59877;BME280;74472;51.140;17.184;2023-12-22T08:25:15;97242.84;;;3.90;81.32
59877;BME280;74472;51.140;17.184;2023-12-22T08:27:41;97239.31;;;3.82;81.35
59877;BME280;74472;51.140;17.184;2023-12-22T08:30:07;97258.66;;;3.89;81.14
59877;BME280;74472;51.140;17.184;2023-12-22T08:32:33;97253.06;;;3.84;81.08
59877;BME280;74472;51.140;17.184;2023-12-22T08:34:58;97243.31;;;3.86;81.00
59877;BME280;74472;51.140;17.184;2023-12-22T08:37:24;97249.34;;;3.86;80.77
59877;BME280;74472;51.140;17.184;2023-12-22T08:39:49;97249.06;;;3.89;80.81
59877;BME280;74472;51.140;17.184;2023-12-22T08:42:16;97260.00;;;3.93;80.66
59877;BME280;74472;51.140;17.184;2023-12-22T08:44:41;97266.75;;;3.95;80.40
59877;BME280;74472;51.140;17.184;2023-12-22T08:47:07;97249.66;;;4.01;80.39
59877;BME280;74472;51.140;17.184;2023-12-22T08:49:32;97251.16;;;4.04;80.50
59877;BME280;74472;51.140;17.184;2023-12-22T08:51:57;97259.81;;;4.04;80.24
59877;BME280;74472;51.140;17.184;2023-12-22T08:54:23;97245.66;;;4.07;79.95
59877;BME280;74472;51.140;17.184;2023-12-22T08:56:48;97260.78;;;4.03;80.11
59877;BME280;74472;51.140;17.184;2023-12-22T08:59:13;97271.75;;;4.07;79.64
59877;BME280;74472;51.140;17.184;2023-12-22T09:01:39;97252.00;;;4.04;79.78
59877;BME280;74472;51.140;17.184;2023-12-22T09:04:06;97261.47;;;4.05;79.61
59877;BME280;74472;51.140;17.184;2023-12-22T09:06:31;97249.53;;;4.03;79.53
59877;BME280;74472;51.140;17.184;2023-12-22T09:08:57;97254.75;;;4.03;79.41
59877;BME280;74472;51.140;17.184;2023-12-22T09:11:24;97253.50;;;4.07;79.44
59877;BME280;74472;51.140;17.184;2023-12-22T09:13:50;97266.41;;;4.08;79.33
59877;BME280;74472;51.140;17.184;2023-12-22T09:16:23;97265.44;;;4.09;78.93
59877;BME280;74472;51.140;17.184;2023-12-22T09:18:49;97260.88;;;4.11;79.36
59877;BME280;74472;51.140;17.184;2023-12-22T09:21:15;97264.97;;;4.14;79.23
59877;BME280;74472;51.140;17.184;2023-12-22T09:23:43;97267.75;;;4.12;79.35
59877;BME280;74472;51.140;17.184;2023-12-22T09:26:10;97261.19;;;4.08;79.21
59877;BME280;74472;51.140;17.184;2023-12-22T09:28:36;97276.41;;;4.13;79.45
59877;BME280;74472;51.140;17.184;2023-12-22T09:31:01;97271.19;;;4.13;79.56
59877;BME280;74472;51.140;17.184;2023-12-22T09:33:27;97270.06;;;4.15;79.70
59877;BME280;74472;51.140;17.184;2023-12-22T09:35:52;97259.25;;;4.10;79.69
59877;BME280;74472;51.140;17.184;2023-12-22T09:38:17;97263.59;;;4.19;80.03
59877;BME280;74472;51.140;17.184;2023-12-22T09:40:43;97279.25;;;4.19;79.31
59877;BME280;74472;51.140;17.184;2023-12-22T09:43:08;97253.03;;;4.11;79.67
59877;BME280;74472;51.140;17.184;2023-12-22T09:45:34;97310.41;;;4.21;79.20
59877;BME280;74472;51.140;17.184;2023-12-22T09:48:01;97259.19;;;4.20;78.63
59877;BME280;74472;51.140;17.184;2023-12-22T09:50:27;97257.69;;;4.17;78.71
59877;BME280;74472;51.140;17.184;2023-12-22T09:52:52;97259.19;;;4.20;79.51
59877;BME280;74472;51.140;17.184;2023-12-22T09:55:18;97273.88;;;4.21;79.45
59877;BME280;74472;51.140;17.184;2023-12-22T09:57:47;97270.06;;;4.15;79.83
59877;BME280;74472;51.140;17.184;2023-12-22T10:00:14;97272.69;;;4.15;80.03
59877;BME280;74472;51.140;17.184;2023-12-22T10:02:40;97269.38;;;4.13;80.29
59877;BME280;74472;51.140;17.184;2023-12-22T10:05:08;97262.81;;;4.09;80.33
59877;BME280;74472;51.140;17.184;2023-12-22T10:07:34;97261.47;;;4.05;80.56
59877;BME280;74472;51.140;17.184;2023-12-22T10:10:00;97265.84;;;4.05;80.74
59877;BME280;74472;51.140;17.184;2023-12-22T10:12:29;97260.09;;;4.01;80.81
59877;BME280;74472;51.140;17.184;2023-12-22T10:14:56;97262.59;;;4.03;80.93
59877;BME280;74472;51.140;17.184;2023-12-22T10:17:22;97252.00;;;4.04;80.83
59877;BME280;74472;51.140;17.184;2023-12-22T10:19:47;97256.78;;;4.09;80.89
59877;BME280;74472;51.140;17.184;2023-12-22T10:22:13;97255.38;;;4.14;80.88
59877;BME280;74472;51.140;17.184;2023-12-22T10:24:44;97271.25;;;4.21;80.55
59877;BME280;74472;51.140;17.184;2023-12-22T10:27:15;97272.47;;;4.27;80.07
59877;BME280;74472;51.140;17.184;2023-12-22T10:29:55;97269.56;;;4.30;79.40
59877;BME280;74472;51.140;17.184;2023-12-22T10:32:20;97290.00;;;4.34;79.11
59877;BME280;74472;51.140;17.184;2023-12-22T10:34:46;97278.47;;;4.37;78.86
59877;BME280;74472;51.140;17.184;2023-12-22T10:37:12;97287.78;;;4.39;78.84
59877;BME280;74472;51.140;17.184;2023-12-22T10:39:38;97264.47;;;4.38;78.61
59877;BME280;74472;51.140;17.184;2023-12-22T10:42:03;97279.50;;;4.44;77.19
59877;BME280;74472;51.140;17.184;2023-12-22T10:44:29;97278.56;;;4.45;78.19
59877;BME280;74472;51.140;17.184;2023-12-22T10:46:55;97282.50;;;4.49;77.73
59877;BME280;74472;51.140;17.184;2023-12-22T10:49:22;97287.91;;;4.47;77.62
59877;BME280;74472;51.140;17.184;2023-12-22T10:51:48;97283.84;;;4.53;77.27
59877;BME280;74472;51.140;17.184;2023-12-22T10:54:13;97280.94;;;4.56;76.56
59877;BME280;74472;51.140;17.184;2023-12-22T10:56:39;97296.78;;;4.55;74.95
59877;BME280;74472;51.140;17.184;2023-12-22T10:59:05;97294.00;;;4.56;75.81
59877;BME280;74472;51.140;17.184;2023-12-22T11:01:32;97300.56;;;4.60;76.44
59877;BME280;74472;51.140;17.184;2023-12-22T11:04:05;97295.06;;;4.63;76.26
59877;BME280;74472;51.140;17.184;2023-12-22T11:06:37;97335.91;;;4.64;75.54
59877;BME280;74472;51.140;17.184;2023-12-22T11:09:06;97305.50;;;4.63;75.72
59877;BME280;74472;51.140;17.184;2023-12-22T11:11:36;97307.06;;;4.56;74.87
59877;BME280;74472;51.140;17.184;2023-12-22T11:14:03;97330.66;;;4.64;74.47
59877;BME280;74472;51.140;17.184;2023-12-22T11:16:29;97323.72;;;4.55;74.51
59877;BME280;74472;51.140;17.184;2023-12-22T11:18:55;97321.75;;;4.57;74.79
59877;BME280;74472;51.140;17.184;2023-12-22T11:21:24;97312.28;;;4.56;73.88
59877;BME280;74472;51.140;17.184;2023-12-22T11:23:51;97309.97;;;4.53;72.69
59877;BME280;74472;51.140;17.184;2023-12-22T11:26:22;97309.44;;;4.50;73.25
59877;BME280;74472;51.140;17.184;2023-12-22T11:28:49;97308.78;;;4.47;72.98
59877;BME280;74472;51.140;17.184;2023-12-22T11:31:17;97325.78;;;4.52;73.29
59877;BME280;74472;51.140;17.184;2023-12-22T11:33:47;97309.44;;;4.50;73.29
59877;BME280;74472;51.140;17.184;2023-12-22T11:36:14;97308.34;;;4.52;73.60
59877;BME280;74472;51.140;17.184;2023-12-22T11:38:40;97328.13;;;4.55;73.40
59877;BME280;74472;51.140;17.184;2023-12-22T11:41:09;97334.16;;;4.55;71.87
59877;BME280;74472;51.140;17.184;2023-12-22T11:43:37;97320.66;;;4.60;73.15
59877;BME280;74472;51.140;17.184;2023-12-22T11:46:03;97314.16;;;4.64;73.67
59877;BME280;74472;51.140;17.184;2023-12-22T11:48:30;97320.59;;;4.69;73.85
59877;BME280;74472;51.140;17.184;2023-12-22T11:50:55;97326.03;;;4.76;74.03
59877;BME280;74472;51.140;17.184;2023-12-22T11:53:22;97305.00;;;4.78;74.00
59877;BME280;74472;51.140;17.184;2023-12-22T11:55:58;97308.44;;;4.78;73.40
59877;BME280;74472;51.140;17.184;2023-12-22T11:58:43;97320.69;;;4.78;73.23
59877;BME280;74472;51.140;17.184;2023-12-22T12:01:17;97315.47;;;4.78;73.71
59877;BME280;74472;51.140;17.184;2023-12-22T12:03:56;97306.66;;;4.79;73.43
59877;BME280;74472;51.140;17.184;2023-12-22T12:08:56;97289.69;;;4.83;73.34
59877;BME280;74472;51.140;17.184;2023-12-22T12:11:22;97298.50;;;4.82;73.58
59877;BME280;74472;51.140;17.184;2023-12-22T12:13:48;97299.84;;;4.86;73.39
59877;BME280;74472;51.140;17.184;2023-12-22T12:16:15;97295.31;;;4.88;73.07
59877;BME280;74472;51.140;17.184;2023-12-22T12:18:44;97300.66;;;4.86;71.21
59877;BME280;74472;51.140;17.184;2023-12-22T12:21:10;97303.28;;;4.86;71.93
59877;BME280;74472;51.140;17.184;2023-12-22T12:23:36;97323.22;;;4.87;71.36
59877;BME280;74472;51.140;17.184;2023-12-22T12:26:03;97292.84;;;4.86;71.33
59877;BME280;74472;51.140;17.184;2023-12-22T12:28:32;97311.41;;;4.83;71.41
59877;BME280;74472;51.140;17.184;2023-12-22T12:30:58;97308.97;;;4.82;69.61
59877;BME280;74472;51.140;17.184;2023-12-22T12:33:27;97320.91;;;4.84;70.77
59877;BME280;74472;51.140;17.184;2023-12-22T12:35:57;97316.50;;;4.85;71.35
59877;BME280;74472;51.140;17.184;2023-12-22T12:38:33;97315.53;;;4.86;70.94
59877;BME280;74472;51.140;17.184;2023-12-22T12:41:04;97311.28;;;4.85;70.12
59877;BME280;74472;51.140;17.184;2023-12-22T12:43:30;97306.19;;;4.83;70.56
59877;BME280;74472;51.140;17.184;2023-12-22T12:46:03;97308.66;;;4.85;70.43
59877;BME280;74472;51.140;17.184;2023-12-22T12:48:28;97310.81;;;4.89;70.50
59877;BME280;74472;51.140;17.184;2023-12-22T12:50:54;97329.13;;;4.89;68.65
59877;BME280;74472;51.140;17.184;2023-12-22T12:53:19;97318.00;;;4.87;68.18
59877;BME280;74472;51.140;17.184;2023-12-22T12:55:45;97321.56;;;4.86;68.57
59877;BME280;74472;51.140;17.184;2023-12-22T12:58:11;97313.06;;;4.84;68.45
59877;BME280;74472;51.140;17.184;2023-12-22T13:00:36;97324.63;;;4.82;67.55